createdAt,value
2022-12-31T00:02:39.491Z,99646.53
2022-12-31T00:05:41.226Z,99659.22
2022-12-31T00:08:43.903Z,99660.84
2022-12-31T00:11:45.632Z,99659.03
2022-12-31T00:14:47.264Z,99668.66
2022-12-31T00:17:48.841Z,99665.97
2022-12-31T00:20:50.454Z,99654.00
2022-12-31T00:23:52.985Z,99672.13
2022-12-31T00:26:54.630Z,99683.22
2022-12-31T00:29:59.526Z,99680.50
2022-12-31T00:33:05.772Z,99680.22
2022-12-31T00:36:19.190Z,99687.03
2022-12-31T00:39:20.785Z,99665.66
2022-12-31T00:42:22.375Z,99681.97
2022-12-31T00:45:23.954Z,99684.78
2022-12-31T00:48:26.021Z,99673.81
2022-12-31T00:51:27.928Z,99683.53
2022-12-31T00:54:29.550Z,99672.09
2022-12-31T00:57:31.180Z,99679.78
2022-12-31T01:00:32.784Z,99683.47
2022-12-31T01:03:34.363Z,99688.75
2022-12-31T01:06:36.315Z,99702.19
2022-12-31T01:09:37.909Z,99706.16
2022-12-31T01:12:39.391Z,99707.53
2022-12-31T01:15:40.955Z,99709.28
2022-12-31T01:18:42.484Z,99701.75
2022-12-31T01:21:45.414Z,99713.84
2022-12-31T01:24:46.941Z,99711.56
2022-12-31T01:27:48.419Z,99703.84
2022-12-31T01:30:49.866Z,99704.00
2022-12-31T01:33:52.008Z,99713.25
2022-12-31T01:36:53.494Z,99713.06
2022-12-31T01:39:54.948Z,99713.16
2022-12-31T01:42:58.736Z,99724.97
2022-12-31T01:46:00.474Z,99723.84
2022-12-31T01:49:09.787Z,99709.06
2022-12-31T01:52:18.430Z,99721.66
2022-12-31T01:55:26.027Z,99732.81
2022-12-31T01:58:49.534Z,99734.25
2022-12-31T02:01:54.301Z,99719.91
2022-12-31T02:04:59.188Z,99717.91
2022-12-31T02:08:00.693Z,99730.81
2022-12-31T02:11:02.291Z,99735.16
2022-12-31T02:14:09.468Z,99736.91
2022-12-31T02:17:44.407Z,99740.75
2022-12-31T02:20:56.635Z,99732.28
2022-12-31T02:24:18.384Z,99746.97
2022-12-31T02:27:33.712Z,99741.53
2022-12-31T02:30:37.261Z,99732.03
2022-12-31T02:33:57.857Z,99731.19
2022-12-31T02:37:03.444Z,99739.47
2022-12-31T02:40:08.468Z,99734.09
2022-12-31T02:43:09.989Z,99744.00
2022-12-31T02:46:21.572Z,99741.72
2022-12-31T02:49:32.874Z,99747.19
2022-12-31T02:52:43.190Z,99747.19
2022-12-31T02:56:03.621Z,99750.47
2022-12-31T02:59:52.680Z,99739.22
2022-12-31T03:02:55.781Z,99733.34
2022-12-31T03:05:58.410Z,99742.09
2022-12-31T03:09:14.716Z,99742.91
2022-12-31T03:12:36.309Z,99757.53
2022-12-31T03:15:38.889Z,99754.59
2022-12-31T03:19:00.643Z,99739.38
2022-12-31T03:22:20.474Z,99749.09
2022-12-31T03:25:54.404Z,99743.84
2022-12-31T03:28:55.965Z,99743.00
2022-12-31T03:31:57.455Z,99745.44
2022-12-31T03:34:58.876Z,99751.69
2022-12-31T03:38:00.815Z,99742.19
2022-12-31T03:41:02.962Z,99742.88
2022-12-31T03:44:04.488Z,99757.66
2022-12-31T03:47:05.962Z,99772.72
2022-12-31T03:50:09.569Z,99752.25
2022-12-31T03:53:11.366Z,99750.31
2022-12-31T03:56:12.886Z,99751.84
2022-12-31T03:59:14.310Z,99745.13
2022-12-31T04:02:16.175Z,99749.06
2022-12-31T04:05:19.315Z,99749.91
2022-12-31T04:08:20.904Z,99762.94
2022-12-31T04:11:22.388Z,99762.56
2022-12-31T04:14:23.905Z,99773.47
2022-12-31T04:17:26.108Z,99767.09
2022-12-31T04:20:27.432Z,99775.47
2022-12-31T04:23:29.013Z,99769.81
2022-12-31T04:26:32.224Z,99771.16
2022-12-31T04:29:33.915Z,99760.72
2022-12-31T04:32:35.428Z,99752.72
2022-12-31T04:35:36.931Z,99753.78
2022-12-31T04:38:38.427Z,99781.50
2022-12-31T04:41:39.915Z,99777.50
2022-12-31T04:44:41.430Z,99774.88
2022-12-31T04:47:43.044Z,99767.50
2022-12-31T04:50:46.233Z,99772.25
2022-12-31T04:53:48.512Z,99778.31
2022-12-31T04:56:50.020Z,99772.78
2022-12-31T04:59:51.529Z,99766.44
2022-12-31T05:02:53.030Z,99773.34
2022-12-31T05:06:00.220Z,99774.44
2022-12-31T05:09:01.705Z,99762.09
2022-12-31T05:12:03.250Z,99754.81
2022-12-31T05:15:05.160Z,99756.06
2022-12-31T05:18:07.688Z,99752.91
2022-12-31T05:21:15.380Z,99770.19
2022-12-31T05:24:16.846Z,99774.75
2022-12-31T05:27:18.445Z,99781.25
2022-12-31T05:30:20.015Z,99782.59
2022-12-31T05:33:22.929Z,99786.81
2022-12-31T05:36:24.401Z,99791.09
2022-12-31T05:39:25.897Z,99793.38
2022-12-31T05:42:27.503Z,99796.03
2022-12-31T05:45:31.191Z,99816.63
2022-12-31T05:48:33.226Z,99804.84
2022-12-31T05:51:34.711Z,99809.94
2022-12-31T05:54:36.567Z,99801.84
2022-12-31T05:57:38.324Z,99835.09
2022-12-31T06:00:42.788Z,99823.53
2022-12-31T06:03:44.385Z,99821.50
2022-12-31T06:06:45.894Z,99814.59
2022-12-31T06:09:47.319Z,99808.22
2022-12-31T06:12:48.781Z,99798.28
2022-12-31T06:15:50.295Z,99780.25
2022-12-31T06:18:51.782Z,99783.34
2022-12-31T06:21:53.227Z,99779.09
2022-12-31T06:24:54.657Z,99782.06
2022-12-31T06:27:56.141Z,99794.53
2022-12-31T06:31:01.974Z,99795.44
2022-12-31T06:34:03.939Z,99801.91
2022-12-31T06:37:05.427Z,99806.06
2022-12-31T06:40:07.580Z,99802.38
2022-12-31T06:43:09.142Z,99814.53
2022-12-31T06:46:12.987Z,99819.25
2022-12-31T06:49:14.585Z,99824.88
2022-12-31T06:52:16.051Z,99826.28
2022-12-31T06:55:17.751Z,99836.09
2022-12-31T06:58:19.398Z,99833.94
2022-12-31T07:01:46.672Z,99838.44
2022-12-31T07:05:07.520Z,99845.84
2022-12-31T07:08:29.714Z,99848.56
2022-12-31T07:11:37.345Z,99859.25
2022-12-31T07:14:51.597Z,99860.97
2022-12-31T07:18:05.832Z,99863.19
2022-12-31T07:21:16.638Z,99854.22
2022-12-31T07:24:18.437Z,99859.56
2022-12-31T07:28:20.644Z,99863.41
2022-12-31T07:31:47.005Z,99860.59
2022-12-31T07:35:03.365Z,99865.31
2022-12-31T07:38:24.004Z,99876.06
2022-12-31T07:41:40.466Z,99871.41
2022-12-31T07:44:58.945Z,99872.97
2022-12-31T07:48:02.658Z,99870.53
2022-12-31T07:51:04.927Z,99871.00
2022-12-31T07:54:11.853Z,99863.34
2022-12-31T07:57:18.053Z,99865.09
2022-12-31T08:00:19.937Z,99865.66
2022-12-31T08:03:47.246Z,99868.56
2022-12-31T08:06:58.229Z,99876.16
2022-12-31T08:10:18.974Z,99883.50
2022-12-31T08:13:21.068Z,99889.25
2022-12-31T08:16:22.967Z,99889.19
2022-12-31T08:19:32.745Z,99891.25
2022-12-31T08:22:55.556Z,99905.38
2022-12-31T08:26:11.930Z,99911.38
2022-12-31T08:29:34.141Z,99916.94
2022-12-31T08:32:41.410Z,99905.56
2022-12-31T08:35:59.796Z,99905.09
2022-12-31T08:39:26.536Z,99912.84
2022-12-31T08:42:44.102Z,99919.75
2022-12-31T08:45:51.165Z,99923.00
2022-12-31T08:48:52.716Z,99920.72
2022-12-31T08:51:54.559Z,99907.03
2022-12-31T08:54:56.254Z,99904.25
2022-12-31T08:58:26.664Z,99912.59
2022-12-31T09:01:42.454Z,99908.19
2022-12-31T09:05:14.311Z,99907.75
2022-12-31T09:08:24.740Z,99916.88
2022-12-31T09:11:52.507Z,99922.44
2022-12-31T09:14:58.224Z,99928.09
2022-12-31T09:17:59.918Z,99912.81
2022-12-31T09:21:01.489Z,99915.19
2022-12-31T09:24:09.204Z,99924.47
2022-12-31T09:27:37.927Z,99918.53
2022-12-31T09:30:54.546Z,99921.06
2022-12-31T09:34:06.688Z,99936.19
2022-12-31T09:37:18.331Z,99923.78
2022-12-31T09:40:28.830Z,99922.44
2022-12-31T09:43:50.017Z,99929.38
2022-12-31T09:47:15.058Z,99944.59
2022-12-31T09:50:48.712Z,99940.53
2022-12-31T09:53:55.296Z,99930.41
2022-12-31T09:57:20.696Z,99932.88
2022-12-31T10:00:55.492Z,99914.88
2022-12-31T10:04:15.735Z,99905.63
2022-12-31T10:07:35.641Z,99914.19
2022-12-31T10:10:54.603Z,99904.44
2022-12-31T10:14:34.321Z,99903.94
2022-12-31T10:18:03.984Z,99899.25
2022-12-31T10:21:38.805Z,99903.44
2022-12-31T10:24:49.327Z,99908.31
2022-12-31T10:28:30.014Z,99882.19
2022-12-31T10:32:17.699Z,99886.41
2022-12-31T10:35:31.028Z,99878.16
2022-12-31T10:38:39.136Z,99873.19
2022-12-31T10:42:02.411Z,99873.16
2022-12-31T10:45:22.632Z,99869.91
2022-12-31T10:48:53.351Z,99850.34
2022-12-31T10:52:26.728Z,99842.25
2022-12-31T10:55:57.800Z,99850.41
2022-12-31T10:59:37.681Z,99839.44
2022-12-31T11:03:11.083Z,99843.19
2022-12-31T11:06:50.196Z,99825.66
2022-12-31T11:10:16.560Z,99833.88
2022-12-31T11:13:35.226Z,99826.50
2022-12-31T11:17:03.260Z,99826.09
2022-12-31T11:20:29.411Z,99826.13
2022-12-31T11:24:06.486Z,99817.56
2022-12-31T11:27:20.897Z,99813.66
2022-12-31T11:30:29.740Z,99811.59
2022-12-31T11:33:56.350Z,99805.50
2022-12-31T11:37:35.185Z,99804.69
2022-12-31T11:40:43.596Z,99799.16
2022-12-31T11:44:14.974Z,99803.66
2022-12-31T11:47:26.389Z,99812.84
2022-12-31T11:50:50.652Z,99807.53
2022-12-31T11:53:57.502Z,99799.97
2022-12-31T11:57:01.930Z,99802.00
2022-12-31T12:00:09.411Z,99802.19
2022-12-31T12:03:13.723Z,99803.66
2022-12-31T12:06:24.798Z,99802.44
2022-12-31T12:09:32.094Z,99799.16
2022-12-31T12:12:41.060Z,99788.13
2022-12-31T12:15:49.344Z,99782.44
2022-12-31T12:19:04.803Z,99775.69
2022-12-31T12:22:12.357Z,99777.75
2022-12-31T12:25:20.592Z,99772.59
2022-12-31T12:28:24.695Z,99766.09
2022-12-31T12:31:27.464Z,99770.59
2022-12-31T12:34:30.499Z,99777.91
2022-12-31T12:37:35.346Z,99764.66
2022-12-31T12:40:36.853Z,99759.19
2022-12-31T12:43:38.871Z,99752.03
2022-12-31T12:46:48.956Z,99741.44
2022-12-31T12:49:54.470Z,99746.13
2022-12-31T12:53:02.085Z,99747.75
2022-12-31T12:56:18.827Z,99745.69
2022-12-31T12:59:38.064Z,99743.25
2022-12-31T13:02:57.875Z,99738.97
2022-12-31T13:06:17.517Z,99740.00
2022-12-31T13:09:49.129Z,99743.25
2022-12-31T13:13:27.295Z,99743.03
2022-12-31T13:16:38.887Z,99742.25
2022-12-31T13:19:52.200Z,99746.72
2022-12-31T13:23:10.526Z,99757.09
2022-12-31T13:26:44.565Z,99756.66
2022-12-31T13:29:47.972Z,99756.72
2022-12-31T13:32:56.753Z,99751.22
2022-12-31T13:36:19.161Z,99750.13
2022-12-31T13:39:25.369Z,99742.00
2022-12-31T13:42:43.620Z,99747.94
2022-12-31T13:45:59.046Z,99749.56
2022-12-31T13:49:05.052Z,99753.19
2022-12-31T13:52:27.484Z,99756.28
2022-12-31T13:55:46.218Z,99751.81
2022-12-31T13:59:17.432Z,99752.59
2022-12-31T14:02:37.976Z,99754.66
2022-12-31T14:05:49.772Z,99754.81
2022-12-31T14:08:53.340Z,99761.13
2022-12-31T14:12:19.318Z,99763.00
2022-12-31T14:15:35.009Z,99754.59
2022-12-31T14:18:53.505Z,99755.00
2022-12-31T14:22:12.034Z,99759.03
2022-12-31T14:25:28.989Z,99759.91
2022-12-31T14:28:41.754Z,99758.63
2022-12-31T14:31:48.196Z,99762.56
2022-12-31T14:35:00.470Z,99771.28
2022-12-31T14:38:36.183Z,99762.44
2022-12-31T14:42:00.301Z,99756.75
2022-12-31T14:45:20.513Z,99764.31
2022-12-31T14:48:40.327Z,99763.50
2022-12-31T14:51:41.879Z,99770.16
2022-12-31T14:54:43.373Z,99769.00
2022-12-31T14:58:26.026Z,99765.50
2022-12-31T15:01:22.470Z,99769.53
2022-12-31T15:04:34.619Z,99768.75
2022-12-31T15:08:22.376Z,99763.00
2022-12-31T15:11:42.532Z,99772.81
2022-12-31T15:14:55.341Z,99763.84
2022-12-31T15:18:21.806Z,99760.59
2022-12-31T15:21:44.718Z,99759.19
2022-12-31T15:24:47.558Z,99748.78
2022-12-31T15:27:49.807Z,99759.38
2022-12-31T15:30:52.940Z,99753.28
2022-12-31T15:34:03.118Z,99754.09
2022-12-31T15:37:06.666Z,99747.16
2022-12-31T15:40:21.437Z,99752.03
2022-12-31T15:43:35.174Z,99752.88
2022-12-31T15:46:40.972Z,99760.78
2022-12-31T15:49:46.633Z,99774.03
2022-12-31T15:52:56.662Z,99771.56
2022-12-31T15:56:00.569Z,99774.00
2022-12-31T15:59:04.955Z,99775.59
2022-12-31T16:02:19.236Z,99777.63
2022-12-31T16:05:24.669Z,99779.09
2022-12-31T16:08:30.716Z,99782.91
2022-12-31T16:11:36.974Z,99786.16
2022-12-31T16:14:42.496Z,99783.84
2022-12-31T16:17:45.193Z,99788.94
2022-12-31T16:20:48.489Z,99788.59
2022-12-31T16:23:52.169Z,99793.44
2022-12-31T16:26:56.994Z,99806.53
2022-12-31T16:30:16.268Z,99795.22
2022-12-31T16:33:19.020Z,99805.97
2022-12-31T16:36:23.080Z,99807.25
2022-12-31T16:39:34.990Z,99820.16
2022-12-31T16:42:44.132Z,99821.38
2022-12-31T16:45:46.134Z,99816.16
2022-12-31T16:48:53.433Z,99811.56
2022-12-31T16:52:24.661Z,99812.44
2022-12-31T16:55:28.611Z,99816.47
2022-12-31T16:58:33.680Z,99820.16
2022-12-31T17:01:37.644Z,99831.59
2022-12-31T17:04:45.169Z,99830.56
2022-12-31T17:07:50.109Z,99832.44
2022-12-31T17:10:51.641Z,99823.88
2022-12-31T17:14:17.903Z,99838.31
2022-12-31T17:17:33.104Z,99832.09
2022-12-31T17:20:34.734Z,99832.34
2022-12-31T17:23:39.675Z,99826.22
2022-12-31T17:26:41.732Z,99825.25
2022-12-31T17:29:44.219Z,99831.22
2022-12-31T17:32:47.244Z,99829.72
2022-12-31T17:35:54.374Z,99835.13
2022-12-31T17:38:56.029Z,99835.88
2022-12-31T17:41:58.046Z,99842.19
2022-12-31T17:45:02.893Z,99853.91
2022-12-31T17:48:05.193Z,99852.88
2022-12-31T17:51:06.799Z,99855.16
2022-12-31T17:54:15.344Z,99857.06
2022-12-31T17:57:25.676Z,99859.34
2022-12-31T18:00:27.437Z,99874.84
2022-12-31T18:03:28.933Z,99867.13
2022-12-31T18:06:30.895Z,99868.13
2022-12-31T18:09:32.373Z,99868.69
2022-12-31T18:12:35.337Z,99862.34
2022-12-31T18:15:36.822Z,99864.63
2022-12-31T18:18:40.026Z,99860.09
2022-12-31T18:21:43.405Z,99866.25
2022-12-31T18:24:44.907Z,99873.94
2022-12-31T18:27:46.526Z,99882.47
2022-12-31T18:30:48.722Z,99880.94
2022-12-31T18:33:51.881Z,99880.13
2022-12-31T18:36:53.338Z,99881.75
2022-12-31T18:39:54.809Z,99895.13
2022-12-31T18:43:01.149Z,99897.78
2022-12-31T18:46:06.200Z,99897.75
2022-12-31T18:49:09.032Z,99896.56
2022-12-31T18:52:18.637Z,99910.28
2022-12-31T18:55:33.616Z,99913.75
2022-12-31T18:58:35.170Z,99912.03
2022-12-31T19:01:41.015Z,99914.88
2022-12-31T19:04:42.613Z,99912.44
2022-12-31T19:07:44.092Z,99912.09
2022-12-31T19:10:47.180Z,99912.00
2022-12-31T19:13:49.487Z,99913.44
2022-12-31T19:16:52.601Z,99906.81
2022-12-31T19:19:54.145Z,99907.56
2022-12-31T19:22:56.052Z,99911.75
2022-12-31T19:25:57.557Z,99906.47
2022-12-31T19:28:59.058Z,99910.03
2022-12-31T19:32:02.221Z,99902.44
2022-12-31T19:35:04.098Z,99896.94
2022-12-31T19:38:15.317Z,99898.69
2022-12-31T19:41:19.573Z,99896.19
2022-12-31T19:44:21.043Z,99895.75
2022-12-31T19:47:22.565Z,99897.81
2022-12-31T19:50:27.524Z,99907.94
2022-12-31T19:53:29.101Z,99897.22
2022-12-31T19:56:30.609Z,99904.16
2022-12-31T19:59:32.053Z,99899.78
2022-12-31T20:02:33.668Z,99896.88
2022-12-31T20:05:35.288Z,99895.75
2022-12-31T20:08:38.778Z,99904.16
2022-12-31T20:11:40.430Z,99916.34
2022-12-31T20:14:42.046Z,99902.78
2022-12-31T20:17:43.776Z,99902.72
2022-12-31T20:20:51.664Z,99915.50
2022-12-31T20:23:56.827Z,99909.91
2022-12-31T20:26:58.406Z,99909.78
2022-12-31T20:29:59.904Z,99916.41
2022-12-31T20:33:01.566Z,99923.06
2022-12-31T20:36:08.333Z,99926.41
2022-12-31T20:39:09.805Z,99926.88
2022-12-31T20:42:11.338Z,99936.66
2022-12-31T20:45:12.912Z,99932.81
2022-12-31T20:48:14.425Z,99932.50
2022-12-31T20:51:17.646Z,99934.25
2022-12-31T20:54:19.139Z,99936.59
2022-12-31T20:57:20.707Z,99924.03
2022-12-31T21:00:22.228Z,99925.03
2022-12-31T21:04:02.925Z,99936.16
2022-12-31T21:06:45.277Z,99937.16
2022-12-31T21:09:46.802Z,99931.22
2022-12-31T21:12:53.179Z,99943.38
2022-12-31T21:15:55.352Z,99948.47
2022-12-31T21:18:56.743Z,99941.72
2022-12-31T21:21:58.286Z,99947.84
2022-12-31T21:25:01.482Z,99948.91
2022-12-31T21:28:03.026Z,99948.81
2022-12-31T21:31:06.746Z,99949.84
2022-12-31T21:34:09.469Z,99956.75
2022-12-31T21:37:11.149Z,99958.50
2022-12-31T21:40:12.652Z,99963.22
2022-12-31T21:43:15.403Z,99973.06
2022-12-31T21:46:16.944Z,99970.25
2022-12-31T21:49:18.437Z,99969.41
2022-12-31T21:52:33.872Z,99973.16
2022-12-31T21:55:57.110Z,99980.25
2022-12-31T21:59:17.386Z,99981.16
2022-12-31T22:02:37.729Z,99982.69
2022-12-31T22:05:46.797Z,99981.50
2022-12-31T22:08:50.678Z,99987.97
2022-12-31T22:11:52.160Z,99991.63
2022-12-31T22:15:15.824Z,99994.84
2022-12-31T22:18:16.644Z,99993.72
2022-12-31T22:21:20.547Z,99999.66
2022-12-31T22:24:22.274Z,99997.75
2022-12-31T22:27:28.338Z,100002.59
2022-12-31T22:30:31.044Z,100003.00
2022-12-31T22:33:32.530Z,99996.84
2022-12-31T22:36:34.011Z,100011.03
2022-12-31T22:39:43.471Z,100011.88
2022-12-31T22:42:46.099Z,100016.16
2022-12-31T22:45:47.567Z,100017.97
2022-12-31T22:48:50.106Z,100027.44
2022-12-31T22:51:57.397Z,100013.69
2022-12-31T22:55:00.415Z,100030.38
2022-12-31T22:58:01.888Z,100023.09
2022-12-31T23:01:09.027Z,100027.28
2022-12-31T23:04:10.696Z,100038.47
2022-12-31T23:07:12.223Z,100035.13
2022-12-31T23:10:32.005Z,100032.72
2022-12-31T23:13:56.478Z,100029.19
2022-12-31T23:17:29.703Z,100044.09
2022-12-31T23:20:50.908Z,100039.81
2022-12-31T23:23:53.593Z,100024.25
2022-12-31T23:26:56.873Z,100041.94
2022-12-31T23:29:58.397Z,100040.66
2022-12-31T23:33:00.018Z,100037.09
2022-12-31T23:36:06.450Z,100040.00
2022-12-31T23:39:08.162Z,100041.28
2022-12-31T23:42:09.976Z,100033.81
2022-12-31T23:45:11.488Z,100027.63
2022-12-31T23:48:12.962Z,100025.03
2022-12-31T23:51:14.494Z,100031.50
2022-12-31T23:54:16.009Z,100025.19
2022-12-31T23:57:17.530Z,100025.69
